Terminal Aerodrome Forecast
Issued by NWS Northern Indiana

Home | Current Version | Previous Version | Graphics & Text | Print | Product List | Glossary On
Versions: 1 2 3 4 5 6 7 8 9 10 11 12 13 14 15 16 17
000
FTUS43 KIWX 271308 AAA
TAFFWA
TAF AMD
KFWA 271308Z 2713/2812 36004KT P6SM FEW050
     FM271400 VRB03KT P6SM SCT035
     FM280900 13002KT 5SM BR FEW200=

USA.gov is the U.S. government's official web portal to all federal, state and local government web resources and services.